Flight Track Log - Related Links

Times and Time Zones

All times are in EDT time to prevent confusion due to time zone crossing. See the N147SW flight status page for this flight to view local times or setup timezone preferences in your user account.

Time Position Orientation Groundspeed Altitude Reporting Facility
EDT Latitude Longitude Course Direction KTS MPH feet Rate Location/Type
Fri 04:24:39 PM 39.6200 -106.9792 110° East 223 257 9,400  Level Denver Center
Fri 04:25:43 PM 39.6706 -107.0289 323° Northwest 240 276 12,900 2,710 Climbing Denver Center
Fri 04:26:43 PM 39.7322 -106.9872 27° Northeast 306 352 15,000 2,000 Climbing Denver Center
Fri 04:27:49 PM 39.7983 -106.9017 45° Northeast 333 383 17,100 1,905 Climbing Denver Center
Fri 04:28:49 PM 39.8428 -106.7667 67° East 356 410 19,000 2,182 Climbing Denver Center
Fri 04:29:00 PM 39.8558 -105.9732 108° East  Level FlightAware
Fri 04:29:50 PM 39.8408 -106.6294 91° East 374 430 21,500  Level Denver Center
Fri 04:30:00 PM 39.8143 -105.8084 110° East  Level FlightAware
Fri 04:30:52 PM 39.8386 -106.5006 91° East 359 413 23,000  Level Denver Center
Fri 04:31:56 PM 39.8361 -106.3733 91° East 384 442 24,000 1,452 Climbing Denver Center
Fri 04:32:56 PM 39.8353 -106.1972 90° East 403 464 26,000 2,115 Climbing Denver Center
Fri 04:33:58 PM 39.8319 -106.0500 92° East 409 471 28,300 1,971 Climbing Denver Center
Fri 04:35:13 PM 39.7911 -105.9153 111° Southeast 402 463 30,500 2,072 Climbing Denver Center
Fri 04:36:17 PM 39.7431 -105.7536 111° Southeast 403 464 33,100 2,516 Climbing Denver Center
Fri 04:37:17 PM 39.6931 -105.5903 112° Southeast 406 467 35,700 1,887 Climbing Denver Center
Fri 04:38:21 PM 39.6550 -105.4564 110° East 402 463 37,000 624 Climbing Denver Center
Fri 04:39:22 PM 39.6119 -105.3169 112° Southeast 417 480 37,000  Level Denver Center
Fri 04:40:25 PM 39.5664 -105.1672 111° Southeast 447 514 37,000  Level Denver Center
Fri 04:41:27 PM 39.5178 -105.0117 112° Southeast 467 537 37,000  Level Denver Center
Fri 04:42:28 PM 39.4589 -104.8206 112° Southeast 484 557 37,000  Level Denver Center
Fri 04:43:29 PM 39.4092 -104.6600 112° Southeast 491 565 37,000  Level Denver Center
Fri 04:44:33 PM 39.3592 -104.4969 112° Southeast 494 568 37,000 532 Level Denver Center
Fri 04:45:33 PM 39.3083 -104.3361 112° Southeast 492 566 38,100 1,597 Climbing Denver Center
Fri 04:46:37 PM 39.2608 -104.1867 112° Southeast 456 525 40,300 1,403 Climbing Denver Center
Fri 04:47:37 PM 39.2064 -104.0153 112° Southeast 437 503 41,000 341 Climbing Denver Center
Fri 04:48:40 PM 39.1603 -103.8692 112° Southeast 438 504 41,000  Level Denver Center
Fri 04:49:43 PM 39.1108 -103.7172 113° Southeast 457 526 41,000  Level Denver Center
Fri 04:50:44 PM 39.0608 -103.5611 112° Southeast 468 539 41,000  Level Denver Center
Fri 04:51:48 PM 39.0106 -103.4044 112° Southeast 475 547 41,000  Level Denver Center
Fri 04:52:49 PM 38.9478 -103.2164 113° Southeast 476 548 41,000  Level Denver Center
Fri 04:53:50 PM 38.8958 -103.0569 113° Southeast 482 555 41,000  Level Denver Center
Fri 04:54:54 PM 38.8442 -102.8989 113° Southeast 482 555 41,000  Level Denver Center
Fri 04:55:55 PM 38.7900 -102.7350 113° Southeast 488 562 41,000  Level Denver Center
Fri 04:56:58 PM 38.7314 -102.5581 113° Southeast 486 559 41,000  Level Denver Center
Fri 04:57:58 PM 38.6792 -102.4033 113° Southeast 490 564 41,000  Level Denver Center
Fri 04:59:02 PM 38.6200 -102.2253 113° Southeast 490 564 41,000  Level Denver Center
Fri 05:00:03 PM 38.5672 -102.0714 114° Southeast 490 564 41,000  Level Denver Center
Fri 05:01:07 PM 38.5147 -101.9167 113° Southeast 493 567 41,000  Level Denver Center
Fri 05:02:08 PM 38.4525 -101.7369 114° Southeast 494 568 41,000  Level Denver Center
Fri 05:03:09 PM 38.3994 -101.5825 114° Southeast 497 572 41,000  Level Denver Center
Fri 05:04:14 PM 38.3367 -101.4019 114° Southeast 498 573 41,000  Level Denver Center
Fri 05:05:15 PM 38.2828 -101.2478 114° Southeast 497 572 41,000  Level Denver Center
Fri 05:05:59 PM 38.2375 -101.1181 114° Southeast 496 571 41,000  Level Kansas Center
Fri 05:07:01 PM 38.1744 -100.9381 114° Southeast 496 571 41,000  Level Kansas Center
Fri 05:08:03 PM 38.1200 -100.7836 114° Southeast 497 572 41,000  Level Kansas Center
Fri 05:09:05 PM 38.0647 -100.6300 115° Southeast 497 572 41,000  Level Kansas Center
Fri 05:10:07 PM 38.0008 -100.4508 114° Southeast 497 572 41,000  Level Kansas Center
Fri 05:11:09 PM 37.9458 -100.2969 114° Southeast 497 572 41,000  Level Kansas Center
Fri 05:12:11 PM 37.8803 -100.1189 115° Southeast 497 572 41,000  Level Kansas Center
Fri 05:13:13 PM 37.8250 -99.9664 115° Southeast 497 572 41,000  Level Kansas Center
Fri 05:14:15 PM 37.7597 -99.7892 115° Southeast 497 572 41,000  Level Kansas Center
Fri 05:15:17 PM 37.7042 -99.6361 115° Southeast 498 573 41,000  Level Kansas Center
Fri 05:16:19 PM 37.6428 -99.4689 115° Southeast 500 575 41,000  Level Kansas Center
Fri 05:17:21 PM 37.5828 -99.3072 115° Southeast 505 581 41,000  Level Kansas Center
Fri 05:18:24 PM 37.5225 -99.1458 115° Southeast 509 586 41,000  Level Kansas Center
Fri 05:19:25 PM 37.4597 -98.9831 116° Southeast 511 588 41,000  Level Kansas Center
Fri 05:20:28 PM 37.3858 -98.7892 116° Southeast 513 590 41,000  Level Kansas Center
Fri 05:21:30 PM 37.3250 -98.6286 115° Southeast 512 589 41,000  Level Kansas Center
Fri 05:22:32 PM 37.2631 -98.4681 116° Southeast 513 590 41,000  Level Kansas Center
Fri 05:23:34 PM 37.2006 -98.3064 116° Southeast 513 590 41,000  Level Kansas Center
Fri 05:24:36 PM 37.1378 -98.1450 116° Southeast 514 592 41,000  Level Kansas Center
Fri 05:25:38 PM 37.0750 -97.9842 116° Southeast 514 592 41,000  Level Kansas Center
Fri 05:26:40 PM 37.0003 -97.7928 116° Southeast 515 593 41,000  Level Kansas Center
Fri 05:27:42 PM 36.9383 -97.6317 116° Southeast 515 593 41,000  Level Kansas Center
Fri 05:28:44 PM 36.8753 -97.4689 116° Southeast 517 595 41,000  Level Kansas Center
Fri 05:29:46 PM 36.8053 -97.2878 116° Southeast 518 596 41,000  Level Kansas Center
Fri 05:30:48 PM 36.7400 -97.1261 117° Southeast 518 596 41,000  Level Kansas Center
Fri 05:31:50 PM 36.6742 -96.9667 117° Southeast 508 585 41,000  Level Kansas Center
Fri 05:32:52 PM 36.6092 -96.8056 117° Southeast 513 590 41,000  Level Kansas Center
Fri 05:33:54 PM 36.5442 -96.6447 117° Southeast 517 595 41,000  Level Kansas Center
Fri 05:34:56 PM 36.4783 -96.4842 117° Southeast 521 600 41,000  Level Kansas Center
Fri 05:35:58 PM 36.3992 -96.2903 117° Southeast 521 600 41,000  Level Kansas Center
Fri 05:37:00 PM 36.3331 -96.1294 117° Southeast 525 604 41,000  Level Kansas Center
Fri 05:38:03 PM 36.2661 -95.9694 117° Southeast 525 604 41,000  Level Kansas Center
Fri 05:39:05 PM 36.1989 -95.8103 118° Southeast 525 604 41,000  Level Kansas Center
Fri 05:40:07 PM 36.1328 -95.6492 117° Southeast 525 604 41,000  Level Kansas Center
Fri 05:41:09 PM 36.0519 -95.4603 118° Southeast 525 604 41,000  Level Kansas Center
Fri 05:42:11 PM 35.9853 -95.3011 117° Southeast 525 604 41,000  Level Kansas Center
Fri 05:43:13 PM 35.9178 -95.1411 117° Southeast 526 605 41,000  Level Kansas Center
Fri 05:44:55 PM 35.8078 -94.8842 118° Southeast 529 609 41,000  Level Memphis Center
Fri 05:45:57 PM 35.7239 -94.6906 118° Southeast 530 610 41,000  Level Memphis Center
Fri 05:46:59 PM 35.6547 -94.5297 118° Southeast 530 610 41,000  Level Memphis Center
Fri 05:48:01 PM 35.5850 -94.3667 118° Southeast 533 613 41,000  Level Memphis Center
Fri 05:49:03 PM 35.5144 -94.2078 119° Southeast 533 613 41,000  Level Memphis Center
Fri 05:50:05 PM 35.4428 -94.0472 119° Southeast 535 616 41,000  Level Memphis Center
Fri 05:51:07 PM 35.3711 -93.8814 118° Southeast 536 617 41,000  Level Memphis Center
Fri 05:52:09 PM 35.2861 -93.6889 118° Southeast 540 621 41,000  Level Memphis Center
Fri 05:53:11 PM 35.2164 -93.5317 118° Southeast 540 621 41,000  Level Memphis Center
Fri 05:54:14 PM 35.1439 -93.3711 119° Southeast 540 621 41,000  Level Memphis Center
Fri 05:55:16 PM 35.0725 -93.2128 119° Southeast 541 623 41,000  Level Memphis Center
Fri 05:56:18 PM 34.9861 -93.0217 119° Southeast 541 623 41,000  Level Memphis Center
Fri 05:57:20 PM 34.9133 -92.8625 119° Southeast 541 623 41,000  Level Memphis Center
Fri 05:58:22 PM 34.8419 -92.7033 119° Southeast 541 623 41,000  Level Memphis Center
Fri 05:59:24 PM 34.7703 -92.5475 119° Southeast 539 620 41,000  Level Memphis Center
Fri 06:00:26 PM 34.6981 -92.3917 119° Southeast 534 615 41,000  Level Memphis Center
Fri 06:01:28 PM 34.6131 -92.2053 119° Southeast 532 612 41,000  Level Memphis Center
Fri 06:02:30 PM 34.5392 -92.0492 120° Southeast 532 612 41,000  Level Memphis Center
Fri 06:03:32 PM 34.4656 -91.8953 120° Southeast 532 612 41,000  Level Memphis Center
Fri 06:04:34 PM 34.3936 -91.7386 119° Southeast 532 612 41,000  Level Memphis Center
Fri 06:05:36 PM 34.3189 -91.5792 120° Southeast 533 613 41,000  Level Memphis Center
Fri 06:06:39 PM 34.2439 -91.4222 120° Southeast 534 615 41,000  Level Memphis Center
Fri 06:07:41 PM 34.1539 -91.2333 120° Southeast 541 623 41,000  Level Memphis Center
Fri 06:08:43 PM 34.0781 -91.0772 120° Southeast 542 624 41,000  Level Memphis Center
Fri 06:09:45 PM 34.0039 -90.9189 119° Southeast 543 625 41,000  Level Memphis Center
Fri 06:10:47 PM 33.9286 -90.7628 120° Southeast 543 625 41,000  Level Memphis Center
Fri 06:11:49 PM 33.8522 -90.6058 120° Southeast 543 625 41,000  Level Memphis Center
Fri 06:12:51 PM 33.7739 -90.4447 120° Southeast 543 625 41,000  Level Memphis Center
Fri 06:13:53 PM 33.6822 -90.2583 121° Southeast 543 625 41,000  Level Memphis Center
Fri 06:14:55 PM 33.6067 -90.1042 120° Southeast 542 624 41,000  Level Memphis Center
Fri 06:15:57 PM 33.5292 -89.9481 121° Southeast 542 624 41,000  Level Memphis Center
Fri 06:16:59 PM 33.4522 -89.7908 120° Southeast 542 624 41,000  Level Memphis Center
Fri 06:18:01 PM 33.3742 -89.6331 121° Southeast 544 626 41,000  Level Memphis Center
Fri 06:19:03 PM 33.2961 -89.4761 121° Southeast 544 626 41,000  Level Memphis Center
Fri 06:20:06 PM 33.2175 -89.3211 121° Southeast 545 627 41,000  Level Memphis Center
Fri 06:21:08 PM 33.1244 -89.1361 121° Southeast 544 626 41,000  Level Memphis Center
Fri 06:22:10 PM 33.0464 -88.9828 121° Southeast 544 626 41,000  Level Memphis Center
Fri 06:23:12 PM 32.9675 -88.8286 121° Southeast 544 626 41,000  Level Memphis Center
Fri 06:24:14 PM 32.8892 -88.6750 121° Southeast 544 626 41,000  Level Memphis Center
Fri 06:25:16 PM 32.8100 -88.5228 122° Southeast 544 626 41,000  Level Memphis Center
Fri 06:26:18 PM 32.7164 -88.3392 121° Southeast 544 626 41,000  Level Memphis Center
Fri 06:27:34 PM 32.6042 -88.1689 128° Southeast 525 604 41,000  Level Atlanta Center
Fri 06:28:34 PM 32.5172 -88.0244 125° Southeast 536 617 41,000  Level Atlanta Center
Fri 06:29:34 PM 32.4278 -87.8825 127° Southeast 543 625 41,000  Level Atlanta Center
Fri 06:30:34 PM 32.3383 -87.7386 126° Southeast 543 625 41,000  Level Atlanta Center
Fri 06:31:34 PM 32.2506 -87.5950 126° Southeast 543 625 41,000  Level Atlanta Center
Fri 06:32:34 PM 32.1686 -87.4642 126° Southeast 548 631 41,000  Level Atlanta Center
Fri 06:33:34 PM 32.0808 -87.3211 126° Southeast 548 631 41,000  Level Atlanta Center
Fri 06:35:30 PM 31.8942 -87.0350 127° Southeast 558 642 41,000  Level Jacksonville Center
Fri 06:36:30 PM 31.8028 -86.8917 127° Southeast 552 635 41,000  Level Jacksonville Center
Fri 06:37:30 PM 31.7111 -86.7486 127° Southeast 547 629 41,000  Level Jacksonville Center
Fri 06:38:30 PM 31.6194 -86.6081 127° Southeast 547 629 41,000  Level Jacksonville Center
Fri 06:39:30 PM 31.5275 -86.4631 127° Southeast 547 629 41,000  Level Jacksonville Center
Fri 06:40:30 PM 31.4311 -86.3278 130° Southeast 547 629 41,000  Level Jacksonville Center
Fri 06:41:30 PM 31.3322 -86.2003 132° Southeast 536 617 41,000  Level Jacksonville Center
Fri 06:42:30 PM 31.2292 -86.0678 132° Southeast 536 617 41,000  Level Jacksonville Center
Fri 06:43:30 PM 31.1319 -85.9383 131° Southeast 529 609 41,000  Level Jacksonville Center
Fri 06:44:30 PM 31.0450 -85.8217 131° Southeast 529 609 41,000  Level Jacksonville Center
Fri 06:45:30 PM 30.9458 -85.6878 131° Southeast 529 609 41,000  Level Jacksonville Center
Fri 06:46:30 PM 30.8483 -85.5614 132° Southeast 529 609 41,000  Level Jacksonville Center
Fri 06:47:30 PM 30.7464 -85.4306 132° Southeast 529 609 41,000  Level Jacksonville Center
Fri 06:48:30 PM 30.6489 -85.3025 131° Southeast 529 609 41,000 -400 Level Jacksonville Center
Fri 06:49:30 PM 30.5467 -85.1744 133° Southeast 530 610 40,200 -950 Descending Jacksonville Center
Fri 06:50:30 PM 30.4425 -85.0394 132° Southeast 542 624 39,100 -1,050 Descending Jacksonville Center
Fri 06:51:30 PM 30.3281 -84.8947 132° Southeast 547 629 38,100 -1,000 Descending Jacksonville Center
Fri 06:52:30 PM 30.2214 -84.7603 133° Southeast 559 643 37,100 -1,000 Descending Jacksonville Center
Fri 06:53:30 PM 30.1169 -84.6264 132° Southeast 559 643 36,100 -950 Descending Jacksonville Center
Fri 06:54:30 PM 30.0081 -84.4900 133° Southeast 559 643 35,200 -1,000 Descending Jacksonville Center
Fri 06:55:30 PM 29.8989 -84.3564 133° Southeast 559 643 34,100 -1,050 Descending Jacksonville Center
Fri 06:56:30 PM 29.7919 -84.2233 133° Southeast 559 643 33,100 -550 Descending Jacksonville Center
Fri 06:57:30 PM 29.6889 -84.0903 132° Southeast 559 643 33,000 -50 Descending Jacksonville Center
Fri 06:58:30 PM 29.5814 -83.9578 133° Southeast 559 643 33,000  Level Jacksonville Center
Fri 06:59:30 PM 29.4761 -83.8253 132° Southeast 559 643 33,000 -300 Level Jacksonville Center
Fri 07:00:30 PM 29.3683 -83.6981 134° Southeast 554 638 32,400 -1,850 Descending Jacksonville Center
Fri 07:01:30 PM 29.2647 -83.5661 132° Southeast 554 638 29,300 -2,700 Descending Jacksonville Center
Fri 07:02:30 PM 29.1547 -83.4681 142° Southeast 518 596 27,000 -1,400 Descending Jacksonville Center
Fri 07:03:30 PM 29.0400 -83.3961 151° Southeast 503 579 26,500 -700 Descending Jacksonville Center
Fri 07:04:30 PM 28.9400 -83.3339 151° Southeast 472 543 25,600 -800 Descending Jacksonville Center
Fri 07:05:30 PM 28.8403 -83.2669 150° Southeast 444 511 24,900 -1,350 Descending Jacksonville Center
Fri 07:06:30 PM 28.7381 -83.2053 152° Southeast 424 488 22,900 -2,400 Descending Jacksonville Center
Fri 07:07:30 PM 28.6422 -83.1433 150° Southeast 406 467 20,100 -3,021 Descending Jacksonville Center
Fri 07:08:51 PM 28.5000 -83.0667 155° Southeast 386 444 15,800 -2,957 Descending Tampa TRACON
Fri 07:09:50 PM 28.4167 -83.0000 145° Southeast 369 425 13,200 -1,900 Descending Tampa TRACON
Fri 07:10:51 PM 28.3333 -82.9500 152° Southeast 304 350 12,000 -1,701 Descending Tampa TRACON
Fri 07:11:57 PM 28.2500 -82.9000 152° Southeast 304 350 9,600 -2,053 Descending Tampa TRACON
Fri 07:12:45 PM 28.2000 -82.8500 139° Southeast 292 336 8,100 -1,842 Descending Tampa TRACON
Fri 07:13:51 PM 28.1333 -82.8000 147° Southeast 280 322 6,100 -1,500 Descending Tampa TRACON
Fri 07:14:57 PM 28.0833 -82.7500 139° Southeast 224 258 4,800 -1,333 Descending Tampa TRACON
Fri 07:15:57 PM 28.0333 -82.7167 150° Southeast 176 203 3,300 -1,474 Descending Tampa TRACON
Fri 07:16:51 PM 27.9833 -82.7000 164° South 147 169 2,000 -1,350 Descending Tampa TRACON
Fri 07:17:57 PM 27.9500 -82.7000 180° South 141 162 600 -1,273 Descending Tampa TRACON

Login

Don't have an account? Register now (free) for customized features, flight alerts, and more!